Airfield :
LOGIN :

Register | Disclaimer

   EN    FR    IT 

 










Legend :    VFR   Marginal VFR   IFR   Intensive IFR   Very Intensive IFR
Visi :
Ceiling :
>= 8 km
>= 3000ft
5 to 8 km
1000 to 3000 ft
1500m to 5 km
500 to 1000 ft
800 to 1500m
200 to 500 ft
< 800m
< 200 ft
Symbols :   Thunderstorms  Fog  Heavy snow  Heavy precipitations  Wind > 20 kt
SIGMETs :     Misc.  Thunderstorms  Icing  Turbulence  Mountain Waves  Volcanic Ashes






- Airport Elevation : 124 ft
- IATA code : NHT


EGWU - RAF Northolt

CURRENT METAR :
  • 282120Z AUTO 33004KT 0250 UP NCD 05/04 Q1013

EXPIRED METARs :
  • 282050Z AUTO 33004KT 0200 UP FEW008/// 05/05 Q1013
  • 282020Z AUTO 34003KT 0450 FG BKN018/// BKN035/// 05/04 Q1012
  • 282009Z 34002KT 5000 0150W PRFG BKN001 05/05 Q1012 NOSIG RMK RED RED
  • 281950Z 28003KT 0150 FG OVC001 06/05 Q1012 NOSIG
  • 281939Z 28003KT 0150 FG OVC001 05/04 Q1012 NOSIG RMK RED RED
  • 281928Z 28002KT 5000 0500NW PRFG FEW024 SCT082 06/05 Q1012 NOSIG RMK RED RED
  • 281850Z 27003KT 9999 MIFG SCT084 07/06 Q1011 BECMG 7000 RMK BLU BECMG WHT

TAF TAF EGWU
Valid from the 28 at 21:00 until the 29 at 15:00 UTC


281957Z 2821/2915 29002KT 0150 FG VV///
TEMPO 2821/2909 4000 MIFG
PROB40
TEMPO 2821/2822 BKN006
PROB30 2822/2910 2000 BKN005
BECMG 2908/2910 7000 BR
BECMG 2910/2912 9999 NSW BKN008



MET'MAP, your aeronautical weather chart ! - Copyright ORBIFLY December 2007 - Disclaimer

ORBIFLY MET'MAP TEAM :

Programming & Development : Alexandra Zaïnal
Original concept : Baudouin d'Aumeries
Technical & hardware support : Manuel Goepfert
Assistance : Marc-Olivier Méhu




SOURCES & CREDITS :

   NOAA